createdAt,value
2018-04-16T00:00:59.717Z,96076.16
2018-04-16T00:03:28.235Z,96075.13
2018-04-16T00:05:54.218Z,96077.75
2018-04-16T00:08:23.392Z,96077.75
2018-04-16T00:10:49.347Z,96072.38
2018-04-16T00:13:19.112Z,96085.06
2018-04-16T00:15:45.039Z,96086.67
2018-04-16T00:18:10.903Z,96083.95
2018-04-16T00:20:36.898Z,96077.70
2018-04-16T00:23:02.823Z,96083.14
2018-04-16T00:25:29.347Z,96084.59
2018-04-16T00:27:55.313Z,96080.89
2018-04-16T00:30:24.427Z,96084.11
2018-04-16T00:32:56.439Z,96085.97
2018-04-16T00:35:28.595Z,96083.98
2018-04-16T00:38:00.576Z,96082.55
2018-04-16T00:40:32.446Z,96087.16
2018-04-16T00:43:04.552Z,96085.30
2018-04-16T00:45:36.537Z,96087.50
2018-04-16T00:48:08.632Z,96088.47
2018-04-16T00:50:40.890Z,96095.16
2018-04-16T00:53:13.014Z,96091.00
2018-04-16T00:55:44.911Z,96095.34
2018-04-16T00:58:17.002Z,96088.46
2018-04-16T01:00:48.992Z,96096.89
2018-04-16T01:03:21.091Z,96093.31
2018-04-16T01:05:53.030Z,96090.53
2018-04-16T01:11:24.559Z,96102.09
2018-04-16T01:13:56.571Z,96099.75
2018-04-16T01:16:28.594Z,96096.66
2018-04-16T01:19:00.649Z,96096.19
2018-04-16T01:21:32.819Z,96098.87
2018-04-16T01:24:04.940Z,96103.00
2018-04-16T01:26:36.927Z,96096.41
2018-04-16T01:29:10.214Z,96098.09
2018-04-16T01:31:42.182Z,96098.64
2018-04-16T01:37:14.298Z,96103.09
2018-04-16T01:39:46.298Z,96105.54
2018-04-16T01:42:18.193Z,96092.86
2018-04-16T01:44:50.174Z,96097.18
2018-04-16T01:47:22.288Z,96100.45
2018-04-16T01:49:54.214Z,96103.28
2018-04-16T01:52:29.359Z,96106.77
2018-04-16T01:55:01.505Z,96100.27
2018-04-16T01:57:33.443Z,96100.59
2018-04-16T02:00:05.535Z,96099.26
2018-04-16T02:02:37.501Z,96108.41
2018-04-16T02:05:09.649Z,96105.91
2018-04-16T02:07:41.707Z,96105.21
2018-04-16T02:13:13.675Z,96107.78
2018-04-16T02:18:43.443Z,96108.59
2018-04-16T02:21:15.486Z,96106.49
2018-04-16T02:23:47.472Z,96112.55
2018-04-16T02:26:19.559Z,96117.11
2018-04-16T02:28:51.637Z,96116.84
2018-04-16T02:31:23.721Z,96121.98
2018-04-16T02:33:56.018Z,96126.06
2018-04-16T02:36:28.056Z,96120.81
2018-04-16T02:38:59.941Z,96124.39
2018-04-16T02:41:31.934Z,96123.39
2018-04-16T02:44:04.013Z,96130.78
2018-04-16T02:46:36.132Z,96127.70
2018-04-16T02:52:06.969Z,96128.27
2018-04-16T02:54:38.992Z,96134.09
2018-04-16T02:57:10.950Z,96136.78
2018-04-16T02:59:43.100Z,96136.25
2018-04-16T03:02:14.967Z,96135.55
2018-04-16T03:04:48.199Z,96133.78
2018-04-16T03:07:20.895Z,96139.32
2018-04-16T03:09:52.887Z,96136.55
2018-04-16T03:12:24.912Z,96137.70
2018-04-16T03:14:56.817Z,96139.75
2018-04-16T03:17:28.797Z,96138.82
2018-04-16T03:20:00.916Z,96141.48
2018-04-16T03:22:32.888Z,96140.22
2018-04-16T03:25:04.796Z,96136.98
2018-04-16T03:27:36.852Z,96137.81
2018-04-16T03:30:08.960Z,96138.05
2018-04-16T03:32:40.956Z,96129.92
2018-04-16T03:35:13.070Z,96134.66
2018-04-16T03:37:45.184Z,96130.14
2018-04-16T03:40:17.215Z,96134.95
2018-04-16T03:42:49.113Z,96132.04
2018-04-16T03:45:21.092Z,96132.56
2018-04-16T03:47:53.050Z,96139.77
2018-04-16T03:50:25.072Z,96136.08
2018-04-16T03:52:56.997Z,96143.70
2018-04-16T03:55:27.660Z,96139.23
2018-04-16T03:57:53.611Z,96139.63
2018-04-16T04:00:19.548Z,96142.97
2018-04-16T04:02:45.423Z,96144.09
2018-04-16T04:05:11.323Z,96145.45
2018-04-16T04:07:37.225Z,96150.95
2018-04-16T04:10:03.117Z,96153.30
2018-04-16T04:12:29.037Z,96154.56
2018-04-16T04:14:55.028Z,96157.45
2018-04-16T04:17:20.964Z,96158.61
2018-04-16T04:19:46.861Z,96158.42
2018-04-16T04:22:12.750Z,96159.88
2018-04-16T04:24:50.892Z,96162.61
2018-04-16T04:27:29.175Z,96160.77
2018-04-16T04:30:07.288Z,96166.69
2018-04-16T04:32:33.176Z,96170.16
2018-04-16T04:34:59.094Z,96170.89
2018-04-16T04:37:24.974Z,96172.00
2018-04-16T04:39:50.890Z,96172.11
2018-04-16T04:42:16.779Z,96170.34
2018-04-16T04:44:42.695Z,96172.66
2018-04-16T04:47:08.592Z,96176.05
2018-04-16T04:49:34.474Z,96178.59
2018-04-16T04:52:00.384Z,96180.09
2018-04-16T04:54:26.338Z,96184.71
2018-04-16T04:56:52.219Z,96189.90
2018-04-16T04:59:18.135Z,96189.36
2018-04-16T05:01:44.067Z,96191.94
2018-04-16T05:04:09.972Z,96190.31
2018-04-16T05:06:35.942Z,96207.08
2018-04-16T05:09:01.834Z,96200.66
2018-04-16T05:11:27.790Z,96204.91
2018-04-16T05:13:53.703Z,96206.01
2018-04-16T05:16:19.645Z,96212.94
2018-04-16T05:18:45.543Z,96212.67
2018-04-16T05:21:11.443Z,96216.36
2018-04-16T05:23:37.461Z,96216.63
2018-04-16T05:26:03.299Z,96224.53
2018-04-16T05:28:29.200Z,96226.81
2018-04-16T05:30:55.095Z,96228.63
2018-04-16T05:33:21.056Z,96235.48
2018-04-16T05:35:46.960Z,96246.27
2018-04-16T05:38:12.930Z,96248.19
2018-04-16T05:40:38.872Z,96246.88
2018-04-16T05:43:04.779Z,96245.88
2018-04-16T05:45:30.703Z,96244.92
2018-04-16T05:47:56.603Z,96244.03
2018-04-16T05:50:22.494Z,96246.88
2018-04-16T05:52:48.346Z,96249.08
2018-04-16T05:55:14.271Z,96248.73
2018-04-16T05:57:40.162Z,96250.23
2018-04-16T06:00:06.044Z,96250.69
2018-04-16T06:02:31.934Z,96247.81
2018-04-16T06:04:57.790Z,96248.38
2018-04-16T06:07:23.697Z,96254.16
2018-04-16T06:09:49.636Z,96255.08
2018-04-16T06:12:15.548Z,96259.81
2018-04-16T06:14:42.713Z,96256.42
2018-04-16T06:17:08.694Z,96264.34
2018-04-16T06:19:34.600Z,96268.78
2018-04-16T06:22:01.656Z,96272.08
2018-04-16T06:24:27.560Z,96264.81
2018-04-16T06:26:56.763Z,96266.23
2018-04-16T06:29:22.678Z,96274.58
2018-04-16T06:31:51.610Z,96270.67
2018-04-16T06:34:17.519Z,96276.25
2018-04-16T06:36:46.603Z,96277.12
2018-04-16T06:39:12.475Z,96274.53
2018-04-16T06:41:38.396Z,96277.95
2018-04-16T06:44:04.298Z,96285.36
2018-04-16T06:46:30.235Z,96281.09
2018-04-16T06:48:57.562Z,96286.67
2018-04-16T06:51:23.479Z,96287.02
2018-04-16T06:53:52.594Z,96288.55
2018-04-16T06:56:18.534Z,96284.19
2018-04-16T06:58:47.756Z,96286.22
2018-04-16T07:01:13.675Z,96289.95
2018-04-16T07:03:42.682Z,96295.68
2018-04-16T07:06:08.625Z,96284.94
2018-04-16T07:08:37.615Z,96288.87
2018-04-16T07:11:03.522Z,96296.41
2018-04-16T07:13:31.371Z,96292.22
2018-04-16T07:15:57.268Z,96290.28
2018-04-16T07:18:23.200Z,96300.34
2018-04-16T07:20:49.159Z,96300.06
2018-04-16T07:23:15.067Z,96289.81
2018-04-16T07:25:44.588Z,96300.70
2018-04-16T07:28:10.562Z,96301.44
2018-04-16T07:30:37.435Z,96298.64
2018-04-16T07:33:03.382Z,96306.91
2018-04-16T07:35:32.430Z,96301.23
2018-04-16T07:37:58.297Z,96305.80
2018-04-16T07:40:27.366Z,96305.41
2018-04-16T07:42:53.896Z,96302.23
2018-04-16T07:45:23.127Z,96307.52
2018-04-16T07:47:49.081Z,96305.87
2018-04-16T07:50:18.027Z,96301.62
2018-04-16T07:52:43.948Z,96299.83
2018-04-16T07:55:09.876Z,96302.38
2018-04-16T07:57:35.794Z,96301.02
2018-04-16T08:00:01.711Z,96303.03
2018-04-16T08:02:28.160Z,96302.64
2018-04-16T08:04:54.064Z,96306.86
2018-04-16T08:07:23.003Z,96314.23
2018-04-16T08:09:48.862Z,96318.22
2018-04-16T08:12:17.915Z,96316.67
2018-04-16T08:14:45.663Z,96318.52
2018-04-16T08:17:11.935Z,96326.09
2018-04-16T08:19:37.845Z,96325.78
2018-04-16T08:22:06.656Z,96317.16
2018-04-16T08:24:32.643Z,96330.96
2018-04-16T08:27:02.108Z,96324.70
2018-04-16T08:32:00.013Z,96331.20
2018-04-16T08:34:25.932Z,96325.84
2018-04-16T08:36:51.867Z,96323.58
2018-04-16T08:39:17.755Z,96324.88
2018-04-16T08:41:43.660Z,96329.56
2018-04-16T08:44:09.579Z,96325.70
2018-04-16T08:46:35.455Z,96332.58
2018-04-16T08:49:04.419Z,96328.71
2018-04-16T08:51:30.323Z,96333.24
2018-04-16T08:53:57.237Z,96335.34
2018-04-16T08:56:23.165Z,96335.20
2018-04-16T08:58:52.048Z,96333.47
2018-04-16T09:01:17.940Z,96336.66
2018-04-16T09:03:46.883Z,96337.28
2018-04-16T09:06:12.793Z,96336.16
2018-04-16T09:08:38.656Z,96338.19
2018-04-16T09:11:04.603Z,96339.55
2018-04-16T09:13:30.530Z,96339.97
2018-04-16T09:15:59.619Z,96340.11
2018-04-16T09:18:25.531Z,96344.43
2018-04-16T09:20:55.078Z,96339.03
2018-04-16T09:23:20.975Z,96349.80
2018-04-16T09:25:47.871Z,96349.71
2018-04-16T09:28:13.747Z,96346.52
2018-04-16T09:30:42.511Z,96353.79
2018-04-16T09:33:08.484Z,96352.10
2018-04-16T09:35:37.307Z,96358.16
2018-04-16T09:38:03.230Z,96360.58
2018-04-16T09:40:32.875Z,96350.95
2018-04-16T09:42:58.802Z,96352.58
2018-04-16T09:45:24.683Z,96354.22
2018-04-16T09:47:50.591Z,96354.53
2018-04-16T09:50:16.523Z,96352.95
2018-04-16T09:52:45.492Z,96354.50
2018-04-16T09:55:11.411Z,96351.66
2018-04-16T09:57:38.657Z,96357.25
2018-04-16T10:00:04.575Z,96355.75
2018-04-16T10:02:33.792Z,96358.33
2018-04-16T10:04:59.697Z,96340.63
2018-04-16T10:07:27.943Z,96356.27
2018-04-16T10:09:53.858Z,96355.55
2018-04-16T10:12:23.492Z,96357.15
2018-04-16T10:14:49.439Z,96354.26
2018-04-16T10:17:17.264Z,96359.64
2018-04-16T10:19:43.179Z,96357.19
2018-04-16T10:22:09.112Z,96357.56
2018-04-16T10:24:35.103Z,96361.97
2018-04-16T10:27:01.006Z,96357.72
2018-04-16T10:29:31.782Z,96357.81
2018-04-16T10:31:57.703Z,96350.92
2018-04-16T10:34:23.650Z,96361.22
2018-04-16T10:36:49.607Z,96362.97
2018-04-16T10:39:18.281Z,96361.88
2018-04-16T10:41:44.170Z,96362.94
2018-04-16T10:44:12.968Z,96368.02
2018-04-16T10:46:38.849Z,96368.69
2018-04-16T10:49:07.544Z,96365.56
2018-04-16T10:51:33.437Z,96374.43
2018-04-16T10:54:02.132Z,96361.04
2018-04-16T10:56:28.024Z,96364.34
2018-04-16T10:58:53.940Z,96359.75
2018-04-16T11:01:19.798Z,96363.03
2018-04-16T11:03:45.735Z,96369.17
2018-04-16T11:06:14.871Z,96370.59
2018-04-16T11:08:40.740Z,96371.49
2018-04-16T11:11:10.603Z,96364.30
2018-04-16T11:13:36.524Z,96362.72
2018-04-16T11:16:04.179Z,96366.20
2018-04-16T11:18:30.088Z,96365.23
2018-04-16T11:20:59.987Z,96368.56
2018-04-16T11:23:25.896Z,96373.00
2018-04-16T11:25:53.343Z,96376.23
2018-04-16T11:28:19.278Z,96366.32
2018-04-16T11:30:49.023Z,96364.84
2018-04-16T11:33:14.943Z,96363.01
2018-04-16T11:35:40.884Z,96371.45
2018-04-16T11:38:06.754Z,96366.27
2018-04-16T11:40:32.665Z,96361.93
2018-04-16T11:42:59.715Z,96374.99
2018-04-16T11:45:25.661Z,96378.30
2018-04-16T11:47:55.332Z,96378.87
2018-04-16T11:50:21.266Z,96376.05
2018-04-16T11:52:48.962Z,96379.63
2018-04-16T11:55:14.900Z,96368.09
2018-04-16T11:57:44.859Z,96372.56
2018-04-16T12:00:10.772Z,96367.63
2018-04-16T12:02:38.518Z,96367.30
2018-04-16T12:05:04.379Z,96367.09
2018-04-16T12:07:33.943Z,96377.52
2018-04-16T12:09:59.854Z,96374.27
2018-04-16T12:12:25.739Z,96372.72
2018-04-16T12:14:51.651Z,96386.13
2018-04-16T12:17:17.548Z,96381.89
2018-04-16T12:19:45.379Z,96389.08
2018-04-16T12:22:11.283Z,96398.10
2018-04-16T12:24:40.712Z,96399.68
2018-04-16T12:27:06.586Z,96401.23
2018-04-16T12:29:34.338Z,96405.59
2018-04-16T12:32:00.233Z,96409.25
2018-04-16T12:34:29.958Z,96409.20
2018-04-16T12:36:55.879Z,96413.48
2018-04-16T12:39:25.186Z,96419.13
2018-04-16T12:41:51.098Z,96419.00
2018-04-16T12:44:18.923Z,96418.66
2018-04-16T12:46:44.807Z,96421.41
2018-04-16T12:49:10.739Z,96420.38
2018-04-16T12:51:36.607Z,96419.23
2018-04-16T12:54:02.527Z,96416.98
2018-04-16T12:56:29.970Z,96410.37
2018-04-16T12:58:55.856Z,96419.39
2018-04-16T13:01:24.801Z,96415.61
2018-04-16T13:03:50.766Z,96414.88
2018-04-16T13:06:20.623Z,96407.41
2018-04-16T13:08:46.586Z,96417.44
2018-04-16T13:11:15.720Z,96421.23
2018-04-16T13:13:41.627Z,96416.48
2018-04-16T13:16:09.138Z,96419.92
2018-04-16T13:18:35.229Z,96418.59
2018-04-16T13:21:04.410Z,96413.48
2018-04-16T13:23:30.307Z,96417.89
2018-04-16T13:25:56.247Z,96414.59
2018-04-16T13:28:22.186Z,96420.77
2018-04-16T13:30:48.060Z,96415.66
2018-04-16T13:33:17.516Z,96407.22
2018-04-16T13:35:43.396Z,96413.76
2018-04-16T13:38:10.424Z,96413.29
2018-04-16T13:40:36.287Z,96417.47
2018-04-16T13:43:05.895Z,96404.25
2018-04-16T13:45:31.777Z,96409.30
2018-04-16T13:47:59.403Z,96414.99
2018-04-16T13:50:25.304Z,96409.52
2018-04-16T13:52:54.349Z,96413.70
2018-04-16T13:55:20.292Z,96411.75
2018-04-16T13:57:49.583Z,96412.41
2018-04-16T14:00:15.467Z,96410.64
2018-04-16T14:02:41.399Z,96413.39
2018-04-16T14:05:07.299Z,96409.54
2018-04-16T14:07:33.209Z,96417.09
2018-04-16T14:10:00.591Z,96409.55
2018-04-16T14:12:26.493Z,96412.24
2018-04-16T14:14:55.684Z,96410.48
2018-04-16T14:17:21.587Z,96417.57
2018-04-16T14:19:51.033Z,96422.08
2018-04-16T14:22:16.938Z,96421.57
2018-04-16T14:24:44.790Z,96423.38
2018-04-16T14:27:11.123Z,96413.91
2018-04-16T14:29:39.993Z,96420.41
2018-04-16T14:32:05.899Z,96419.19
2018-04-16T14:34:35.196Z,96432.55
2018-04-16T14:37:01.092Z,96420.98
2018-04-16T14:39:27.047Z,96414.93
2018-04-16T14:41:53.017Z,96424.44
2018-04-16T14:44:18.872Z,96417.16
2018-04-16T14:46:46.164Z,96416.55
2018-04-16T14:49:12.026Z,96419.22
2018-04-16T14:51:41.474Z,96428.06
2018-04-16T14:54:07.382Z,96425.13
2018-04-16T14:56:36.889Z,96435.06
2018-04-16T14:59:02.831Z,96441.80
2018-04-16T15:01:31.843Z,96443.30
2018-04-16T15:03:57.710Z,96439.91
2018-04-16T15:06:24.704Z,96445.27
2018-04-16T15:08:50.621Z,96447.46
2018-04-16T15:11:19.448Z,96439.48
2018-04-16T15:13:45.357Z,96437.78
2018-04-16T15:16:11.283Z,96445.25
2018-04-16T15:18:37.232Z,96442.00
2018-04-16T15:21:03.158Z,96444.25
2018-04-16T15:23:32.158Z,96442.66
2018-04-16T15:25:58.091Z,96442.95
2018-04-16T15:28:27.595Z,96439.42
2018-04-16T15:30:53.509Z,96444.38
2018-04-16T15:33:21.303Z,96446.52
2018-04-16T15:35:47.179Z,96445.59
2018-04-16T15:38:16.834Z,96444.02
2018-04-16T15:40:42.743Z,96445.42
2018-04-16T15:43:10.446Z,96437.55
2018-04-16T15:45:36.349Z,96448.95
2018-04-16T15:48:04.675Z,96447.53
2018-04-16T15:50:30.567Z,96440.53
2018-04-16T15:52:56.475Z,96453.06
2018-04-16T15:55:22.358Z,96452.03
2018-04-16T15:57:48.244Z,96448.56
2018-04-16T16:00:17.745Z,96457.43
2018-04-16T16:02:43.636Z,96466.13
2018-04-16T16:05:12.773Z,96461.83
2018-04-16T16:07:38.666Z,96457.57
2018-04-16T16:10:06.362Z,96458.70
2018-04-16T16:12:32.239Z,96457.97
2018-04-16T16:15:01.149Z,96453.66
2018-04-16T16:17:27.009Z,96463.98
2018-04-16T16:20:01.556Z,96463.25
2018-04-16T16:22:30.043Z,96467.53
2018-04-16T16:24:56.140Z,96468.12
2018-04-16T16:27:23.040Z,96474.50
2018-04-16T16:29:49.354Z,96478.91
2018-04-16T16:32:15.257Z,96477.23
2018-04-16T16:34:41.125Z,96480.16
2018-04-16T16:37:07.028Z,96481.97
2018-04-16T16:39:32.903Z,96477.49
2018-04-16T16:42:01.552Z,96481.73
2018-04-16T16:44:27.645Z,96491.64
2018-04-16T16:46:53.568Z,96490.83
2018-04-16T16:49:19.487Z,96487.34
2018-04-16T16:51:46.766Z,96487.36
2018-04-16T16:54:12.684Z,96485.19
2018-04-16T16:56:43.296Z,96495.47
2018-04-16T16:59:09.482Z,96492.95
2018-04-16T17:01:35.374Z,96497.09
2018-04-16T17:04:01.291Z,96495.36
2018-04-16T17:06:27.165Z,96494.50
2018-04-16T17:08:53.179Z,96498.05
2018-04-16T17:11:19.107Z,96497.25
2018-04-16T17:13:50.346Z,96496.56
2018-04-16T17:16:16.389Z,96498.17
2018-04-16T17:18:42.267Z,96503.50
2018-04-16T17:21:08.249Z,96509.03
2018-04-16T17:23:36.923Z,96516.02
2018-04-16T17:26:02.885Z,96514.39
2018-04-16T17:28:31.445Z,96521.58
2018-04-16T17:30:59.682Z,96525.55
2018-04-16T17:33:26.307Z,96532.59
2018-04-16T17:35:52.191Z,96535.50
2018-04-16T17:38:21.698Z,96540.55
2018-04-16T17:40:47.733Z,96543.08
2018-04-16T17:43:13.646Z,96544.04
2018-04-16T17:45:40.498Z,96550.77
2018-04-16T17:48:06.391Z,96557.79
2018-04-16T17:50:32.414Z,96553.08
2018-04-16T17:52:58.321Z,96564.55
2018-04-16T17:55:27.130Z,96567.66
2018-04-16T17:57:52.991Z,96567.50
2018-04-16T18:00:21.818Z,96575.75
2018-04-16T18:02:48.634Z,96580.55
2018-04-16T18:05:17.592Z,96579.86
2018-04-16T18:07:43.483Z,96580.00
2018-04-16T18:10:12.967Z,96583.73
2018-04-16T18:12:38.896Z,96588.20
2018-04-16T18:15:06.078Z,96591.49
2018-04-16T18:17:31.980Z,96602.25
2018-04-16T18:20:01.809Z,96605.54
2018-04-16T18:22:27.930Z,96602.75
2018-04-16T18:24:53.827Z,96609.16
2018-04-16T18:27:19.724Z,96617.79
2018-04-16T18:29:45.600Z,96617.00
2018-04-16T18:32:13.207Z,96622.02
2018-04-16T18:34:39.096Z,96630.13
2018-04-16T18:37:07.184Z,96625.34
2018-04-16T18:39:33.095Z,96637.78
2018-04-16T18:42:03.412Z,96635.67
2018-04-16T18:44:29.395Z,96641.05
2018-04-16T18:46:57.279Z,96645.05
2018-04-16T18:49:23.192Z,96643.52
2018-04-16T18:51:51.575Z,96647.00
2018-04-16T18:54:17.442Z,96652.84
2018-04-16T18:56:43.361Z,96651.62
2018-04-16T18:59:09.262Z,96659.41
2018-04-16T19:01:35.192Z,96661.45
2018-04-16T19:04:04.547Z,96662.27
2018-04-16T19:06:30.450Z,96663.03
2018-04-16T19:08:57.604Z,96673.30
2018-04-16T19:11:23.506Z,96673.95
2018-04-16T19:13:53.001Z,96674.20
2018-04-16T19:16:18.912Z,96686.19
2018-04-16T19:18:48.656Z,96696.60
2018-04-16T19:21:20.684Z,96700.78
2018-04-16T19:23:46.582Z,96709.77
2018-04-16T19:26:12.456Z,96712.86
2018-04-16T19:28:38.376Z,96712.09
2018-04-16T19:31:04.290Z,96720.67
2018-04-16T19:33:36.270Z,96720.20
2018-04-16T19:36:02.177Z,96724.73
2018-04-16T19:38:28.105Z,96729.43
2018-04-16T19:40:53.996Z,96733.58
2018-04-16T19:43:19.929Z,96733.91
2018-04-16T19:45:45.809Z,96738.25
2018-04-16T19:48:11.730Z,96737.06
2018-04-16T19:50:37.652Z,96742.79
2018-04-16T19:53:03.525Z,96747.13
2018-04-16T19:55:39.153Z,96750.45
2018-04-16T19:58:11.207Z,96760.91
2018-04-16T20:00:37.117Z,96761.88
2018-04-16T20:03:09.147Z,96772.61
2018-04-16T20:05:35.084Z,96774.78
2018-04-16T20:08:00.995Z,96778.64
2018-04-16T20:10:26.920Z,96777.41
2018-04-16T20:12:52.813Z,96782.63
2018-04-16T20:15:18.731Z,96785.67
2018-04-16T20:17:44.677Z,96786.56
2018-04-16T20:20:10.622Z,96792.45
2018-04-16T20:22:36.498Z,96794.75
2018-04-16T20:25:02.438Z,96804.70
2018-04-16T20:27:29.797Z,96809.59
2018-04-16T20:29:55.682Z,96806.11
2018-04-16T20:32:21.632Z,96813.88
2018-04-16T20:34:47.533Z,96811.40
2018-04-16T20:37:13.390Z,96813.28
2018-04-16T20:39:39.292Z,96819.50
2018-04-16T20:42:07.129Z,96826.48
2018-04-16T20:44:35.482Z,96824.91
2018-04-16T20:47:01.367Z,96830.41
2018-04-16T20:49:27.332Z,96833.25
2018-04-16T20:51:53.240Z,96833.55
2018-04-16T20:54:20.629Z,96837.02
2018-04-16T20:56:46.662Z,96836.64
2018-04-16T20:59:14.168Z,96839.03
2018-04-16T21:01:40.067Z,96838.69
2018-04-16T21:04:09.338Z,96838.05
2018-04-16T21:06:35.256Z,96847.30
2018-04-16T21:09:02.980Z,96851.08
2018-04-16T21:11:28.895Z,96851.82
2018-04-16T21:13:58.231Z,96848.66
2018-04-16T21:16:24.119Z,96855.48
2018-04-16T21:18:53.115Z,96854.73
2018-04-16T21:21:19.023Z,96857.50
2018-04-16T21:23:44.950Z,96855.70
2018-04-16T21:26:10.884Z,96860.35
2018-04-16T21:28:36.810Z,96872.65
2018-04-16T21:31:04.051Z,96873.92
2018-04-16T21:33:29.945Z,96882.94
2018-04-16T21:35:58.589Z,96874.28
2018-04-16T21:38:24.490Z,96878.09
2018-04-16T21:40:53.242Z,96882.44
2018-04-16T21:43:19.148Z,96888.19
2018-04-16T21:45:48.856Z,96883.13
2018-04-16T21:48:14.799Z,96889.30
2018-04-16T21:50:44.613Z,96888.62
2018-04-16T21:53:10.523Z,96890.94
2018-04-16T21:55:39.425Z,96890.59
2018-04-16T21:58:05.303Z,96884.44
2018-04-16T22:00:31.183Z,96880.34
2018-04-16T22:02:57.106Z,96886.45
2018-04-16T22:05:23.030Z,96892.55
2018-04-16T22:07:49.998Z,96893.26
2018-04-16T22:10:15.903Z,96893.91
2018-04-16T22:12:44.879Z,96895.81
2018-04-16T22:15:10.768Z,96892.11
2018-04-16T22:17:38.964Z,96888.20
2018-04-16T22:20:04.874Z,96896.91
2018-04-16T22:22:34.671Z,96890.70
2018-04-16T22:25:00.600Z,96894.57
2018-04-16T22:27:28.556Z,96900.86
2018-04-16T22:29:54.481Z,96898.59
2018-04-16T22:32:24.277Z,96904.56
2018-04-16T22:34:50.176Z,96907.37
2018-04-16T22:37:16.040Z,96911.68
2018-04-16T22:39:41.944Z,96922.63
2018-04-16T22:42:07.913Z,96917.30
2018-04-16T22:44:34.639Z,96917.56
2018-04-16T22:47:00.501Z,96916.80
2018-04-16T22:49:30.233Z,96924.53
2018-04-16T22:51:56.132Z,96924.45
2018-04-16T22:54:24.105Z,96929.18
2018-04-16T22:56:49.985Z,96928.54
2018-04-16T22:59:18.901Z,96926.97
2018-04-16T23:01:44.801Z,96928.92
2018-04-16T23:04:14.108Z,96928.03
2018-04-16T23:06:40.036Z,96927.67
2018-04-16T23:09:09.781Z,96935.41
2018-04-16T23:11:35.696Z,96932.59
2018-04-16T23:14:01.588Z,96942.65
2018-04-16T23:16:27.462Z,96946.48
2018-04-16T23:18:53.380Z,96938.88
2018-04-16T23:21:19.904Z,96943.64
2018-04-16T23:23:45.819Z,96941.70
2018-04-16T23:26:14.502Z,96948.55
2018-04-16T23:28:40.410Z,96946.52
2018-04-16T23:31:09.426Z,96946.13
2018-04-16T23:33:35.346Z,96950.16
2018-04-16T23:36:04.957Z,96949.94
2018-04-16T23:38:30.878Z,96953.44
2018-04-16T23:40:58.969Z,96953.25
2018-04-16T23:43:24.848Z,96956.78
2018-04-16T23:45:54.665Z,96941.36
2018-04-16T23:48:20.547Z,96957.80
2018-04-16T23:50:46.467Z,96960.15
2018-04-16T23:53:12.344Z,96964.77
2018-04-16T23:55:38.223Z,96972.02
2018-04-16T23:58:05.261Z,96959.87
